createdAt,value
2019-05-01T04:00:56.486Z,9.67
2019-05-01T04:01:56.361Z,9.64
2019-05-01T04:03:49.050Z,9.75
2019-05-01T04:04:48.911Z,9.63
2019-05-01T04:06:41.595Z,9.55
2019-05-01T04:07:41.480Z,9.60
2019-05-01T04:09:34.166Z,9.48
2019-05-01T04:10:34.028Z,9.42
2019-05-01T04:12:26.699Z,9.35
2019-05-01T04:13:26.592Z,9.39
2019-05-01T04:15:19.278Z,9.34
2019-05-01T04:16:19.150Z,9.41
2019-05-01T04:18:11.816Z,9.35
2019-05-01T04:19:11.711Z,9.39
2019-05-01T04:21:04.393Z,9.45
2019-05-01T04:22:04.263Z,9.47
2019-05-01T04:23:56.935Z,9.52
2019-05-01T04:24:56.823Z,9.55
2019-05-01T04:26:50.007Z,9.62
2019-05-01T04:27:49.916Z,9.56
2019-05-01T04:29:42.629Z,9.66
2019-05-01T04:30:42.429Z,9.52
2019-05-01T04:32:51.196Z,9.53
2019-05-01T04:33:34.991Z,9.59
2019-05-01T04:35:27.663Z,9.60
2019-05-01T04:36:27.556Z,9.56
2019-05-01T04:38:20.254Z,9.71
2019-05-01T04:39:20.109Z,9.67
2019-05-01T04:41:12.791Z,9.71
2019-05-01T04:42:12.685Z,9.81
2019-05-01T04:44:05.353Z,9.74
2019-05-01T04:45:05.225Z,9.77
2019-05-01T04:46:57.894Z,9.77
2019-05-01T04:47:57.785Z,9.75
2019-05-01T04:49:50.476Z,9.77
2019-05-01T04:50:50.349Z,9.85
2019-05-01T04:52:43.017Z,9.88
2019-05-01T04:53:42.901Z,9.84
2019-05-01T04:55:36.095Z,9.56
2019-05-01T04:56:35.951Z,9.57
2019-05-01T04:58:28.658Z,9.55
2019-05-01T04:59:28.527Z,9.42
2019-05-01T05:01:21.195Z,9.38
2019-05-01T05:02:21.081Z,9.38
2019-05-01T05:04:13.769Z,9.32
2019-05-01T05:05:13.638Z,9.32
2019-05-01T05:07:06.332Z,9.50
2019-05-01T05:08:06.200Z,9.52
2019-05-01T05:09:58.869Z,9.59
2019-05-01T05:10:58.754Z,9.56
2019-05-01T05:12:51.441Z,9.62
2019-05-01T05:13:51.311Z,9.55
2019-05-01T05:15:43.968Z,9.60
2019-05-01T05:16:43.860Z,9.57
2019-05-01T05:18:36.544Z,9.59
2019-05-01T05:19:36.412Z,9.55
2019-05-01T05:21:29.087Z,9.63
2019-05-01T05:22:28.967Z,9.55
2019-05-01T05:24:21.685Z,9.72
2019-05-01T05:25:21.544Z,9.64
2019-05-01T05:27:14.242Z,9.55
2019-05-01T05:28:14.100Z,9.64
2019-05-01T05:30:06.788Z,9.67
2019-05-01T05:31:06.661Z,9.66
2019-05-01T05:32:59.330Z,9.78
2019-05-01T05:33:59.212Z,9.72
2019-05-01T05:35:51.893Z,9.82
2019-05-01T05:36:51.762Z,9.81
2019-05-01T05:38:44.432Z,9.96
2019-05-01T05:39:44.320Z,9.95
2019-05-01T05:41:37.000Z,10.03
2019-05-01T05:42:36.879Z,10.07
2019-05-01T05:44:29.546Z,10.03
2019-05-01T05:45:29.458Z,10.10
2019-05-01T05:47:22.134Z,10.07
2019-05-01T05:48:21.995Z,10.14
2019-05-01T05:50:14.678Z,10.21
2019-05-01T05:51:14.557Z,10.21
2019-05-01T05:53:07.263Z,10.26
2019-05-01T05:54:07.126Z,10.18
2019-05-01T05:55:59.817Z,10.33
2019-05-01T05:56:59.693Z,10.28
2019-05-01T05:58:52.375Z,10.20
2019-05-01T05:59:52.238Z,10.32
2019-05-01T06:01:44.909Z,10.20
2019-05-01T06:02:44.796Z,10.13
2019-05-01T06:04:37.485Z,10.14
2019-05-01T06:05:37.359Z,10.07
2019-05-01T06:07:30.020Z,10.18
2019-05-01T06:08:29.907Z,10.15
2019-05-01T06:10:23.232Z,10.31
2019-05-01T06:11:22.488Z,10.18
2019-05-01T06:13:17.814Z,10.38
2019-05-01T06:14:15.052Z,10.31
2019-05-01T06:16:12.184Z,10.52
2019-05-01T06:17:07.609Z,10.44
2019-05-01T06:19:00.272Z,10.36
2019-05-01T06:20:00.173Z,10.38
2019-05-01T06:21:52.852Z,10.32
2019-05-01T06:22:52.844Z,10.33
2019-05-01T06:24:45.384Z,10.41
2019-05-01T06:25:45.276Z,10.49
2019-05-01T06:27:37.974Z,10.66
2019-05-01T06:28:37.836Z,10.59
2019-05-01T06:30:30.514Z,10.72
2019-05-01T06:31:30.409Z,10.67
2019-05-01T06:33:23.103Z,10.69
2019-05-01T06:34:23.868Z,10.72
2019-05-01T06:36:15.664Z,10.83
2019-05-01T06:37:15.538Z,10.94
2019-05-01T06:39:11.902Z,10.66
2019-05-01T06:40:08.093Z,10.76
2019-05-01T06:42:00.760Z,10.87
2019-05-01T06:43:00.647Z,10.72
2019-05-01T06:44:53.346Z,10.94
2019-05-01T06:45:53.214Z,10.92
2019-05-01T06:47:45.885Z,11.05
2019-05-01T06:48:48.826Z,11.06
2019-05-01T06:50:41.522Z,11.06
2019-05-01T06:51:38.347Z,11.08
2019-05-01T06:53:31.045Z,11.28
2019-05-01T06:54:30.923Z,11.30
2019-05-01T06:56:23.610Z,11.39
2019-05-01T06:57:23.490Z,11.24
2019-05-01T06:59:16.152Z,11.12
2019-05-01T07:00:16.049Z,11.13
2019-05-01T07:02:08.735Z,11.34
2019-05-01T07:03:10.440Z,11.27
2019-05-01T07:05:01.796Z,11.33
2019-05-01T07:06:13.756Z,11.33
2019-05-01T07:07:54.956Z,11.39
2019-05-01T07:08:54.231Z,11.38
2019-05-01T07:10:46.901Z,11.38
2019-05-01T07:11:47.693Z,11.39
2019-05-01T07:13:41.500Z,11.31
2019-05-01T07:14:39.854Z,11.24
2019-05-01T07:16:33.139Z,11.39
2019-05-01T07:17:32.415Z,11.34
2019-05-01T07:19:25.099Z,11.34
2019-05-01T07:20:25.625Z,11.38
2019-05-01T07:22:17.666Z,11.46
2019-05-01T07:23:18.675Z,11.53
2019-05-01T07:25:10.246Z,11.42
2019-05-01T07:26:13.745Z,11.46
2019-05-01T07:28:02.812Z,11.27
2019-05-01T07:29:06.056Z,11.35
2019-05-01T07:30:56.170Z,11.42
2019-05-01T07:31:55.279Z,11.34
2019-05-01T07:33:51.305Z,11.45
2019-05-01T07:34:49.050Z,11.43
2019-05-01T07:36:41.537Z,11.46
2019-05-01T07:37:41.398Z,11.39
2019-05-01T07:39:34.075Z,11.46
2019-05-01T07:40:33.959Z,11.28
2019-05-01T07:42:27.150Z,11.52
2019-05-01T07:43:27.023Z,11.52
2019-05-01T07:45:19.695Z,11.59
2019-05-01T07:46:19.636Z,11.42
2019-05-01T07:48:12.275Z,11.49
2019-05-01T07:49:13.165Z,11.43
2019-05-01T07:51:07.090Z,11.28
2019-05-01T07:52:05.221Z,11.53
2019-05-01T07:53:58.974Z,11.67
2019-05-01T07:54:57.782Z,11.81
2019-05-01T07:56:50.458Z,11.89
2019-05-01T07:57:50.354Z,11.98
2019-05-01T07:59:43.034Z,12.20
2019-05-01T08:00:42.911Z,12.18
2019-05-01T08:02:35.578Z,12.22
2019-05-01T08:03:37.925Z,12.36
2019-05-01T08:05:28.169Z,12.25
2019-05-01T08:06:28.086Z,12.29
2019-05-01T08:08:20.720Z,12.34
2019-05-01T08:09:20.619Z,12.44
2019-05-01T08:11:13.312Z,12.31
2019-05-01T08:12:14.469Z,12.56
2019-05-01T08:14:07.696Z,12.59
2019-05-01T08:15:05.747Z,12.83
2019-05-01T08:16:58.454Z,12.80
2019-05-01T08:17:58.316Z,12.88
2019-05-01T08:19:50.993Z,12.95
2019-05-01T08:20:51.568Z,12.98
2019-05-01T08:22:43.574Z,13.17
2019-05-01T08:23:47.142Z,13.27
2019-05-01T08:25:36.129Z,13.14
2019-05-01T08:26:39.646Z,13.39
2019-05-01T08:28:32.069Z,13.47
2019-05-01T08:29:28.579Z,13.42
2019-05-01T08:31:23.029Z,13.47
2019-05-01T08:32:21.150Z,13.50
2019-05-01T08:34:13.844Z,13.28
2019-05-01T08:35:13.713Z,13.24
2019-05-01T08:37:06.974Z,13.25
2019-05-01T08:38:06.865Z,13.37
2019-05-01T08:39:59.551Z,13.27
2019-05-01T08:40:59.429Z,13.45
2019-05-01T08:42:52.109Z,13.39
2019-05-01T08:43:54.078Z,13.37
2019-05-01T08:45:44.693Z,13.21
2019-05-01T08:46:46.928Z,13.39
2019-05-01T08:48:37.736Z,13.53
2019-05-01T08:49:37.133Z,13.58
2019-05-01T08:51:30.059Z,13.60
2019-05-01T08:52:29.704Z,13.68
2019-05-01T08:54:22.380Z,13.84
2019-05-01T08:55:22.270Z,13.93
2019-05-01T08:57:14.968Z,13.69
2019-05-01T08:58:15.965Z,13.81
2019-05-01T09:00:07.524Z,13.62
2019-05-01T09:01:10.917Z,13.27
2019-05-01T09:03:08.280Z,13.29
2019-05-01T09:04:11.824Z,13.35
2019-05-01T09:05:57.295Z,13.44
2019-05-01T09:06:52.569Z,13.37
2019-05-01T09:08:45.252Z,13.51
2019-05-01T09:09:47.010Z,13.58
2019-05-01T09:11:37.802Z,13.62
2019-05-01T09:12:37.704Z,13.69
2019-05-01T09:14:34.968Z,13.91
2019-05-01T09:15:30.283Z,14.05
2019-05-01T09:17:22.961Z,13.99
2019-05-01T09:18:22.852Z,13.93
2019-05-01T09:20:16.742Z,14.16
2019-05-01T09:21:15.426Z,14.16
2019-05-01T09:23:09.394Z,14.30
2019-05-01T09:24:08.006Z,14.36
2019-05-01T09:26:00.709Z,14.59
2019-05-01T09:27:00.585Z,14.87
2019-05-01T09:28:53.255Z,14.77
2019-05-01T09:29:53.144Z,14.89
2019-05-01T09:31:45.850Z,14.80
2019-05-01T09:32:53.967Z,14.63
2019-05-01T09:34:38.409Z,14.52
2019-05-01T09:35:40.305Z,14.61
2019-05-01T09:37:31.013Z,14.56
2019-05-01T09:38:30.875Z,14.67
2019-05-01T09:40:23.559Z,14.75
2019-05-01T09:41:23.450Z,14.63
2019-05-01T09:43:16.303Z,15.01
2019-05-01T09:44:16.060Z,15.08
2019-05-01T09:46:08.718Z,14.97
2019-05-01T09:47:08.617Z,15.00
2019-05-01T09:49:01.323Z,15.33
2019-05-01T09:50:01.203Z,15.49
2019-05-01T09:51:53.894Z,15.73
2019-05-01T09:52:55.106Z,15.95
2019-05-01T09:54:47.809Z,16.30
2019-05-01T09:55:46.358Z,16.16
2019-05-01T09:57:41.414Z,16.40
2019-05-01T09:58:38.952Z,16.04
2019-05-01T10:00:31.630Z,16.00
2019-05-01T10:01:32.911Z,16.26
2019-05-01T10:03:24.719Z,16.22
2019-05-01T10:04:25.444Z,16.14
2019-05-01T10:06:18.767Z,16.63
2019-05-01T10:07:17.188Z,16.80
2019-05-01T10:09:12.001Z,16.82
2019-05-01T10:10:10.774Z,17.18
2019-05-01T10:12:03.466Z,17.50
2019-05-01T10:13:03.371Z,17.66
2019-05-01T10:14:56.071Z,17.76
2019-05-01T10:15:55.945Z,17.50
2019-05-01T10:17:48.621Z,17.21
2019-05-01T10:18:48.523Z,17.06
2019-05-01T10:20:41.248Z,16.91
2019-05-01T10:21:41.135Z,16.74
2019-05-01T10:23:33.823Z,16.74
2019-05-01T10:24:37.779Z,16.55
2019-05-01T10:26:26.542Z,16.10
2019-05-01T10:27:26.337Z,15.98
2019-05-01T10:29:21.378Z,15.49
2019-05-01T10:30:18.896Z,15.08
2019-05-01T10:32:11.597Z,15.01
2019-05-01T10:33:11.484Z,15.12
2019-05-01T10:35:04.162Z,15.63
2019-05-01T10:36:04.056Z,15.73
2019-05-01T10:37:56.781Z,15.41
2019-05-01T10:38:56.648Z,15.63
2019-05-01T10:40:49.332Z,16.21
2019-05-01T10:41:49.288Z,16.30
2019-05-01T10:43:41.928Z,16.14
2019-05-01T10:44:41.807Z,15.81
2019-05-01T10:46:34.498Z,16.10
2019-05-01T10:47:34.389Z,16.32
2019-05-01T10:49:27.118Z,16.52
2019-05-01T10:50:26.973Z,16.57
2019-05-01T10:52:20.131Z,16.59
2019-05-01T10:53:20.029Z,16.54
2019-05-01T10:55:13.215Z,16.42
2019-05-01T10:56:13.094Z,16.52
2019-05-01T10:58:05.776Z,16.55
2019-05-01T10:59:05.675Z,16.47
2019-05-01T11:00:58.367Z,16.47
2019-05-01T11:01:58.238Z,16.39
2019-05-01T11:03:50.938Z,15.83
2019-05-01T11:04:50.832Z,15.80
2019-05-01T11:06:43.527Z,16.11
2019-05-01T11:07:43.408Z,16.27
2019-05-01T11:09:36.086Z,16.48
2019-05-01T11:10:35.979Z,16.34
2019-05-01T11:12:28.690Z,15.98
2019-05-01T11:13:28.626Z,15.95
2019-05-01T11:15:21.244Z,16.18
2019-05-01T11:16:21.160Z,16.36
2019-05-01T11:18:13.842Z,16.63
2019-05-01T11:19:13.723Z,16.65
2019-05-01T11:21:06.422Z,16.54
2019-05-01T11:22:06.314Z,16.16
2019-05-01T11:23:59.013Z,16.21
2019-05-01T11:24:58.894Z,16.32
2019-05-01T11:26:51.586Z,16.44
2019-05-01T11:27:51.473Z,16.52
2019-05-01T11:29:44.172Z,16.66
2019-05-01T11:30:44.041Z,16.58
2019-05-01T11:32:36.724Z,16.65
2019-05-01T11:33:36.628Z,16.74
2019-05-01T11:35:29.327Z,16.72
2019-05-01T11:36:29.196Z,16.99
2019-05-01T11:38:21.878Z,17.06
2019-05-01T11:39:21.786Z,17.18
2019-05-01T11:41:14.470Z,17.24
2019-05-01T11:42:14.341Z,17.31
2019-05-01T11:44:07.025Z,17.30
2019-05-01T11:45:06.920Z,17.22
2019-05-01T11:47:00.154Z,17.22
2019-05-01T11:48:00.028Z,17.12
2019-05-01T11:49:52.676Z,17.10
2019-05-01T11:50:52.577Z,17.13
2019-05-01T11:52:45.298Z,17.35
2019-05-01T11:53:45.138Z,17.35
2019-05-01T11:55:37.827Z,17.32
2019-05-01T11:56:37.718Z,17.28
2019-05-01T11:58:30.420Z,17.36
2019-05-01T11:59:32.572Z,17.35
2019-05-01T12:01:22.975Z,17.30
2019-05-01T12:02:22.868Z,17.40
2019-05-01T12:04:15.560Z,17.36
2019-05-01T12:05:15.444Z,17.06
2019-05-01T12:07:08.130Z,17.21
2019-05-01T12:08:08.020Z,17.20
2019-05-01T12:10:00.716Z,17.45
2019-05-01T12:11:00.596Z,17.30
2019-05-01T12:12:53.303Z,17.80
2019-05-01T12:13:53.200Z,17.86
2019-05-01T12:15:45.934Z,18.26
2019-05-01T12:16:45.784Z,18.32
2019-05-01T12:18:38.458Z,18.74
2019-05-01T12:19:38.362Z,18.71
2019-05-01T12:21:31.065Z,18.31
2019-05-01T12:22:30.944Z,18.68
2019-05-01T12:24:23.642Z,18.41
2019-05-01T12:25:23.532Z,18.41
2019-05-01T12:27:16.238Z,18.65
2019-05-01T12:28:16.108Z,18.65
2019-05-01T12:30:08.798Z,19.02
2019-05-01T12:31:08.690Z,18.90
2019-05-01T12:33:01.392Z,19.13
2019-05-01T12:34:01.263Z,18.82
2019-05-01T12:35:53.956Z,18.61
2019-05-01T12:36:53.932Z,18.72
2019-05-01T12:38:46.564Z,18.66
2019-05-01T12:39:46.438Z,18.84
2019-05-01T12:41:39.114Z,18.66
2019-05-01T12:42:39.010Z,18.47
2019-05-01T12:44:31.715Z,18.69
2019-05-01T12:45:31.594Z,18.31
2019-05-01T12:47:24.281Z,18.21
2019-05-01T12:48:24.172Z,17.84
2019-05-01T12:50:16.880Z,17.63
2019-05-01T12:51:16.760Z,17.74
2019-05-01T12:53:09.436Z,17.84
2019-05-01T12:54:09.337Z,17.88
2019-05-01T12:56:02.055Z,17.98
2019-05-01T12:57:01.914Z,18.01
2019-05-01T12:58:55.995Z,18.23
2019-05-01T13:00:07.588Z,18.29
2019-05-01T13:01:47.191Z,18.49
2019-05-01T13:02:47.067Z,18.36
2019-05-01T13:04:39.760Z,18.24
2019-05-01T13:05:39.655Z,18.39
2019-05-01T13:07:32.353Z,18.69
2019-05-01T13:08:32.241Z,18.91
2019-05-01T13:10:24.929Z,18.61
2019-05-01T13:11:24.818Z,18.13
2019-05-01T13:13:17.527Z,17.99
2019-05-01T13:14:17.402Z,18.14
2019-05-01T13:16:10.087Z,18.47
2019-05-01T13:17:09.979Z,18.56
2019-05-01T13:19:02.945Z,18.29
2019-05-01T13:20:02.566Z,18.27
2019-05-01T13:21:55.257Z,18.39
2019-05-01T13:22:55.147Z,18.39
2019-05-01T13:24:47.854Z,18.49
2019-05-01T13:25:47.725Z,18.56
2019-05-01T13:27:40.429Z,18.56
2019-05-01T13:28:40.307Z,18.34
2019-05-01T13:30:33.011Z,18.26
2019-05-01T13:31:32.884Z,18.23
2019-05-01T13:33:26.572Z,18.31
2019-05-01T13:34:26.469Z,18.02
2019-05-01T13:36:19.358Z,17.99
2019-05-01T13:37:19.233Z,17.87
2019-05-01T13:39:11.917Z,17.83
2019-05-01T13:40:11.815Z,17.73
2019-05-01T13:42:04.506Z,17.18
2019-05-01T13:43:04.405Z,17.10
2019-05-01T13:44:57.575Z,17.47
2019-05-01T13:45:57.467Z,17.46
2019-05-01T13:47:50.163Z,17.83
2019-05-01T13:48:50.047Z,17.88
2019-05-01T13:50:42.722Z,17.99
2019-05-01T13:51:42.621Z,18.03
2019-05-01T13:53:35.322Z,18.29
2019-05-01T13:54:35.196Z,18.27
2019-05-01T13:56:27.875Z,18.39
2019-05-01T13:57:27.769Z,18.41
2019-05-01T13:59:20.507Z,18.75
2019-05-01T14:00:20.358Z,18.82
2019-05-01T14:02:13.040Z,18.90
2019-05-01T14:03:12.934Z,18.89
2019-05-01T14:05:05.628Z,18.66
2019-05-01T14:06:05.529Z,18.60
2019-05-01T14:07:58.192Z,18.32
2019-05-01T14:08:58.077Z,18.21
2019-05-01T14:10:50.781Z,18.41
2019-05-01T14:11:50.667Z,18.36
2019-05-01T14:13:43.348Z,18.08
2019-05-01T14:14:43.251Z,18.01
2019-05-01T14:16:35.949Z,17.88
2019-05-01T14:17:35.827Z,17.87
2019-05-01T14:19:28.526Z,17.86
2019-05-01T14:20:28.458Z,17.71
2019-05-01T14:22:21.091Z,17.79
2019-05-01T14:23:20.977Z,17.83
2019-05-01T14:25:13.669Z,17.57
2019-05-01T14:26:13.553Z,17.49
2019-05-01T14:28:06.242Z,17.49
2019-05-01T14:29:06.129Z,17.49
2019-05-01T14:30:58.846Z,17.38
2019-05-01T14:31:58.720Z,17.50
2019-05-01T14:33:51.904Z,17.43
2019-05-01T14:34:51.833Z,17.49
2019-05-01T14:36:44.500Z,17.49
2019-05-01T14:37:44.382Z,17.47
2019-05-01T14:39:37.129Z,17.79
2019-05-01T14:40:36.969Z,17.88
2019-05-01T14:42:29.657Z,17.94
2019-05-01T14:43:29.547Z,17.98
2019-05-01T14:45:22.229Z,18.20
2019-05-01T14:46:22.119Z,18.20
2019-05-01T14:48:14.814Z,18.08
2019-05-01T14:49:14.699Z,18.01
2019-05-01T14:51:07.377Z,18.02
2019-05-01T14:52:07.342Z,17.90
2019-05-01T14:54:01.006Z,17.86
2019-05-01T14:55:00.893Z,17.95
2019-05-01T14:56:53.568Z,18.29
2019-05-01T14:57:53.458Z,18.36
2019-05-01T14:59:46.168Z,18.13
2019-05-01T15:00:46.032Z,18.10
2019-05-01T15:02:38.716Z,18.05
2019-05-01T15:03:38.610Z,17.87
2019-05-01T15:05:31.305Z,17.87
2019-05-01T15:06:31.191Z,17.88
2019-05-01T15:08:24.644Z,17.84
2019-05-01T15:09:24.543Z,17.95
2019-05-01T15:11:17.243Z,18.05
2019-05-01T15:12:17.114Z,18.29
2019-05-01T15:14:09.796Z,18.44
2019-05-01T15:15:09.885Z,18.35
2019-05-01T15:17:02.428Z,18.02
2019-05-01T15:18:02.268Z,18.16
2019-05-01T15:19:55.437Z,18.47
2019-05-01T15:20:55.338Z,18.63
2019-05-01T15:22:48.034Z,18.79
2019-05-01T15:23:53.757Z,18.90
2019-05-01T15:25:40.590Z,19.05
2019-05-01T15:26:40.488Z,18.86
2019-05-01T15:28:33.210Z,18.81
2019-05-01T15:29:33.064Z,18.75
2019-05-01T15:31:25.750Z,18.34
2019-05-01T15:32:25.669Z,18.35
2019-05-01T15:34:18.349Z,18.42
2019-05-01T15:35:18.216Z,18.45
2019-05-01T15:37:10.912Z,18.72
2019-05-01T15:38:10.803Z,18.65
2019-05-01T15:40:03.516Z,18.35
2019-05-01T15:41:03.383Z,18.08
2019-05-01T15:42:56.085Z,18.06
2019-05-01T15:43:55.964Z,17.94
2019-05-01T15:45:48.664Z,18.02
2019-05-01T15:46:48.548Z,18.08
2019-05-01T15:48:41.225Z,18.27
2019-05-01T15:49:41.123Z,18.44
2019-05-01T15:51:33.823Z,18.51
2019-05-01T15:52:33.706Z,18.49
2019-05-01T15:54:26.379Z,18.35
2019-05-01T15:55:26.277Z,18.16
2019-05-01T15:57:18.982Z,18.03
2019-05-01T15:58:18.859Z,18.06
2019-05-01T16:00:11.575Z,18.17
2019-05-01T16:01:11.474Z,18.02
2019-05-01T16:03:04.176Z,18.05
2019-05-01T16:04:04.050Z,17.74
2019-05-01T16:05:56.755Z,17.68
2019-05-01T16:06:56.651Z,17.42
2019-05-01T16:08:49.313Z,17.54
2019-05-01T16:09:49.218Z,17.46
2019-05-01T16:11:41.917Z,17.52
2019-05-01T16:12:41.792Z,17.52
2019-05-01T16:14:34.469Z,17.57
2019-05-01T16:15:34.365Z,17.55
2019-05-01T16:17:27.074Z,17.63
2019-05-01T16:18:26.938Z,17.49
2019-05-01T16:20:19.628Z,17.45
2019-05-01T16:21:19.782Z,17.45
2019-05-01T16:23:12.218Z,17.45
2019-05-01T16:24:12.108Z,17.38
2019-05-01T16:26:04.788Z,17.40
2019-05-01T16:27:04.680Z,17.46
2019-05-01T16:28:57.375Z,17.49
2019-05-01T16:29:57.258Z,17.32
2019-05-01T16:31:49.936Z,17.54
2019-05-01T16:32:49.828Z,17.55
2019-05-01T16:34:42.551Z,17.50
2019-05-01T16:35:42.404Z,17.55
2019-05-01T16:37:35.080Z,17.74
2019-05-01T16:38:34.990Z,17.86
2019-05-01T16:40:28.185Z,17.88
2019-05-01T16:41:28.063Z,17.86
2019-05-01T16:43:20.735Z,17.31
2019-05-01T16:44:20.648Z,17.10
2019-05-01T16:46:13.338Z,16.91
2019-05-01T16:47:13.194Z,16.97
2019-05-01T16:49:05.908Z,17.07
2019-05-01T16:50:05.794Z,16.91
2019-05-01T16:51:58.517Z,16.90
2019-05-01T16:52:58.386Z,17.03
2019-05-01T16:54:59.145Z,16.90
2019-05-01T16:55:50.981Z,17.05
2019-05-01T16:57:43.678Z,16.90
2019-05-01T16:58:43.552Z,17.02
2019-05-01T17:00:36.252Z,16.99
2019-05-01T17:01:36.147Z,17.03
2019-05-01T17:03:28.842Z,16.90
2019-05-01T17:04:28.725Z,16.88
2019-05-01T17:06:21.401Z,16.91
2019-05-01T17:07:21.294Z,17.05
2019-05-01T17:09:13.981Z,16.95
2019-05-01T17:10:13.859Z,16.90
2019-05-01T17:12:06.542Z,16.85
2019-05-01T17:13:06.427Z,16.76
2019-05-01T17:14:59.158Z,16.62
2019-05-01T17:15:59.030Z,16.72
2019-05-01T17:17:51.705Z,16.70
2019-05-01T17:18:51.609Z,16.62
2019-05-01T17:20:44.298Z,16.65
2019-05-01T17:21:44.169Z,16.59
2019-05-01T17:23:36.850Z,16.62
2019-05-01T17:24:36.740Z,16.55
2019-05-01T17:26:29.424Z,16.63
2019-05-01T17:27:29.308Z,16.59
2019-05-01T17:29:21.985Z,16.69
2019-05-01T17:30:21.876Z,16.63
2019-05-01T17:32:14.562Z,16.80
2019-05-01T17:33:19.605Z,16.72
2019-05-01T17:35:07.987Z,16.73
2019-05-01T17:36:07.093Z,16.63
2019-05-01T17:37:59.751Z,16.57
2019-05-01T17:38:59.626Z,16.69
2019-05-01T17:40:53.592Z,16.49
2019-05-01T17:41:52.231Z,16.39
2019-05-01T17:43:49.352Z,16.36
2019-05-01T17:44:44.772Z,16.26
2019-05-01T17:46:37.470Z,16.18
2019-05-01T17:47:37.337Z,16.13
2019-05-01T17:49:30.010Z,16.08
2019-05-01T17:50:29.932Z,16.18
2019-05-01T17:52:22.587Z,16.13
2019-05-01T17:53:22.472Z,15.99
2019-05-01T17:55:15.154Z,15.95
2019-05-01T17:56:15.709Z,15.96
2019-05-01T17:58:07.744Z,15.80
2019-05-01T17:59:07.618Z,15.81
2019-05-01T18:01:00.350Z,15.88
2019-05-01T18:02:00.186Z,15.91
2019-05-01T18:03:53.372Z,15.75
2019-05-01T18:04:53.245Z,15.74
2019-05-01T18:06:46.617Z,15.70
2019-05-01T18:07:45.811Z,15.74
2019-05-01T18:09:38.510Z,15.67
2019-05-01T18:10:39.710Z,15.62
2019-05-01T18:12:31.065Z,15.67
2019-05-01T18:13:30.957Z,15.60
2019-05-01T18:15:23.656Z,15.58
2019-05-01T18:16:23.523Z,15.45
2019-05-01T18:18:16.595Z,15.51
2019-05-01T18:19:16.094Z,15.49
2019-05-01T18:21:08.780Z,15.45
2019-05-01T18:22:08.656Z,15.37
2019-05-01T18:24:01.334Z,15.31
2019-05-01T18:25:01.235Z,15.30
2019-05-01T18:26:53.928Z,15.37
2019-05-01T18:27:54.482Z,15.23
2019-05-01T18:29:46.490Z,15.26
2019-05-01T18:30:46.382Z,15.18
2019-05-01T18:32:41.529Z,15.25
2019-05-01T18:33:38.955Z,15.19
2019-05-01T18:35:31.649Z,15.16
2019-05-01T18:36:31.524Z,15.12
2019-05-01T18:38:24.207Z,15.07
2019-05-01T18:39:25.973Z,15.00
2019-05-01T18:41:16.800Z,15.05
2019-05-01T18:42:16.672Z,15.04
2019-05-01T18:44:10.171Z,15.02
2019-05-01T18:45:09.649Z,14.98
2019-05-01T18:47:01.940Z,14.90
2019-05-01T18:48:01.802Z,14.93
2019-05-01T18:49:54.475Z,14.86
2019-05-01T18:50:56.086Z,14.80
2019-05-01T18:52:47.061Z,14.79
2019-05-01T18:53:46.938Z,14.87
2019-05-01T18:55:39.609Z,14.69
2019-05-01T18:56:39.643Z,14.70
2019-05-01T18:58:32.195Z,14.75
2019-05-01T18:59:32.076Z,14.69
2019-05-01T19:01:24.748Z,14.60
2019-05-01T19:02:25.089Z,14.60
2019-05-01T19:04:18.582Z,14.59
2019-05-01T19:05:17.210Z,14.51
2019-05-01T19:07:09.888Z,14.53
2019-05-01T19:08:09.767Z,14.51
2019-05-01T19:10:02.465Z,14.42
2019-05-01T19:11:12.266Z,14.46
2019-05-01T19:12:55.029Z,14.46
2019-05-01T19:13:54.898Z,14.42
2019-05-01T19:15:47.608Z,14.45
2019-05-01T19:16:47.469Z,14.41
2019-05-01T19:18:40.170Z,14.45
2019-05-01T19:19:40.072Z,14.33
2019-05-01T19:21:32.761Z,14.36
2019-05-01T19:22:32.623Z,14.36
2019-05-01T19:24:25.283Z,14.34
2019-05-01T19:25:25.165Z,14.36
2019-05-01T19:27:19.064Z,14.28
2019-05-01T19:28:17.733Z,14.23
2019-05-01T19:30:14.833Z,14.19
2019-05-01T19:31:10.313Z,14.16
2019-05-01T19:33:03.515Z,14.16
2019-05-01T19:34:03.373Z,14.09
2019-05-01T19:35:56.045Z,14.06
2019-05-01T19:36:55.932Z,13.93
2019-05-01T19:38:48.640Z,13.93
2019-05-01T19:39:48.948Z,13.84
2019-05-01T19:41:43.733Z,13.76
2019-05-01T19:42:41.562Z,13.72
2019-05-01T19:44:34.303Z,13.69
2019-05-01T19:45:34.107Z,13.76
2019-05-01T19:47:26.791Z,13.60
2019-05-01T19:48:26.684Z,13.60
2019-05-01T19:50:19.410Z,13.60
2019-05-01T19:51:23.610Z,13.50
2019-05-01T19:53:14.773Z,13.62
2019-05-01T19:54:11.784Z,13.53
2019-05-01T19:56:04.997Z,13.53
2019-05-01T19:57:04.863Z,13.42
2019-05-01T19:58:57.596Z,13.48
2019-05-01T19:59:57.423Z,13.40
2019-05-01T20:01:50.143Z,13.35
2019-05-01T20:02:54.289Z,13.39
2019-05-01T20:04:45.260Z,13.35
2019-05-01T20:05:42.575Z,13.29
2019-05-01T20:07:35.292Z,13.29
2019-05-01T20:08:35.131Z,13.29
2019-05-01T20:10:27.810Z,13.17
2019-05-01T20:11:27.711Z,13.19
2019-05-01T20:13:20.447Z,13.16
2019-05-01T20:14:20.311Z,13.13
2019-05-01T20:16:13.387Z,13.11
2019-05-01T20:17:13.008Z,13.09
2019-05-01T20:19:05.698Z,13.03
2019-05-01T20:20:05.627Z,12.96
2019-05-01T20:21:58.736Z,12.95
2019-05-01T20:22:58.622Z,12.91
2019-05-01T20:24:51.315Z,12.95
2019-05-01T20:25:55.756Z,12.95
2019-05-01T20:27:47.731Z,12.84
2019-05-01T20:28:43.741Z,12.88
2019-05-01T20:30:37.057Z,12.80
2019-05-01T20:31:36.309Z,12.77
2019-05-01T20:33:33.431Z,12.83
2019-05-01T20:34:28.871Z,12.77
2019-05-01T20:36:21.561Z,12.69
2019-05-01T20:37:21.432Z,12.66
2019-05-01T20:39:14.554Z,12.65
2019-05-01T20:40:13.988Z,12.62
2019-05-01T20:42:06.694Z,12.58
2019-05-01T20:43:07.358Z,12.48
2019-05-01T20:45:05.636Z,12.62
2019-05-01T20:45:59.622Z,12.52
2019-05-01T20:47:54.324Z,12.45
2019-05-01T20:48:55.883Z,12.51
2019-05-01T20:50:45.224Z,12.43
2019-05-01T20:51:45.056Z,12.45
2019-05-01T20:53:38.225Z,12.33
2019-05-01T20:54:38.473Z,12.31
2019-05-01T20:56:30.770Z,12.33
2019-05-01T20:57:30.654Z,12.31
2019-05-01T20:59:23.348Z,12.25
2019-05-01T21:00:23.444Z,12.23
2019-05-01T21:02:15.885Z,12.20
2019-05-01T21:03:18.258Z,12.16
2019-05-01T21:05:08.461Z,12.22
2019-05-01T21:06:09.189Z,12.04
2019-05-01T21:08:01.001Z,12.08
2019-05-01T21:09:00.887Z,12.11
2019-05-01T21:10:53.591Z,12.04
2019-05-01T21:12:04.698Z,12.05
2019-05-01T21:13:46.114Z,11.98
2019-05-01T21:14:49.564Z,12.00
2019-05-01T21:16:39.627Z,11.95
2019-05-01T21:17:38.568Z,11.88
2019-05-01T21:19:33.589Z,11.86
2019-05-01T21:20:31.145Z,11.79
2019-05-01T21:22:23.897Z,11.76
2019-05-01T21:23:23.758Z,11.79
2019-05-01T21:25:16.981Z,11.66
2019-05-01T21:26:16.888Z,11.67
2019-05-01T21:28:09.666Z,11.67
2019-05-01T21:29:09.546Z,11.67
2019-05-01T21:31:03.918Z,11.59
2019-05-01T21:32:03.521Z,11.56
2019-05-01T21:33:54.797Z,11.53
2019-05-01T21:34:54.668Z,11.52
2019-05-01T21:36:52.270Z,11.43
2019-05-01T21:37:47.233Z,11.46
2019-05-01T21:39:39.919Z,11.41
2019-05-01T21:40:41.206Z,11.42
2019-05-01T21:42:32.681Z,11.39
2019-05-01T21:43:35.333Z,11.33
2019-05-01T21:45:25.044Z,11.38
2019-05-01T21:46:24.912Z,11.39
2019-05-01T21:48:17.587Z,11.41
2019-05-01T21:49:17.465Z,11.39
2019-05-01T21:51:12.496Z,11.24
2019-05-01T21:52:10.522Z,11.26
2019-05-01T21:54:03.381Z,11.24
2019-05-01T21:55:03.158Z,11.12
2019-05-01T21:56:55.777Z,11.21
2019-05-01T21:57:55.647Z,11.18
2019-05-01T21:59:48.327Z,11.05
